createdAt,value
2018-01-15T00:00:24.354Z,98523.67
2018-01-15T00:00:55.926Z,98518.98
2018-01-15T00:01:27.508Z,98517.75
2018-01-15T00:01:59.127Z,98514.34
2018-01-15T00:02:30.703Z,98517.75
2018-01-15T00:03:02.278Z,98516.05
2018-01-15T00:03:33.855Z,98522.86
2018-01-15T00:04:05.435Z,98514.77
2018-01-15T00:04:37.006Z,98519.03
2018-01-15T00:05:08.637Z,98523.30
2018-01-15T00:05:40.191Z,98528.44
2018-01-15T00:06:11.771Z,98527.17
2018-01-15T00:06:43.350Z,98522.91
2018-01-15T00:07:14.962Z,98523.76
2018-01-15T00:07:46.543Z,98526.31
2018-01-15T00:08:18.114Z,98520.73
2018-01-15T00:08:49.694Z,98527.09
2018-01-15T00:09:21.304Z,98528.40
2018-01-15T00:09:52.878Z,98521.97
2018-01-15T00:10:24.462Z,98530.06
2018-01-15T00:10:56.043Z,98527.52
2018-01-15T00:11:27.640Z,98527.09
2018-01-15T00:11:59.214Z,98539.00
2018-01-15T00:12:30.888Z,98532.63
2018-01-15T00:13:02.466Z,98524.09
2018-01-15T00:13:34.071Z,98524.14
2018-01-15T00:14:05.651Z,98522.83
2018-01-15T00:14:37.282Z,98521.54
2018-01-15T00:15:08.854Z,98526.66
2018-01-15T00:15:40.474Z,98518.98
2018-01-15T00:16:12.051Z,98514.77
2018-01-15T00:16:43.630Z,98511.36
2018-01-15T00:17:15.211Z,98517.75
2018-01-15T00:17:46.791Z,98512.64
2018-01-15T00:18:18.405Z,98511.78
2018-01-15T00:18:49.975Z,98509.23
2018-01-15T00:19:21.558Z,98512.22
2018-01-15T00:19:53.171Z,98510.51
2018-01-15T00:20:24.742Z,98510.52
2018-01-15T00:20:56.323Z,98511.36
2018-01-15T00:21:27.939Z,98507.95
2018-01-15T00:21:59.514Z,98508.41
2018-01-15T00:22:31.086Z,98509.27
2018-01-15T00:23:02.667Z,98507.99
2018-01-15T00:23:34.242Z,98508.84
2018-01-15T00:24:05.822Z,98510.08
2018-01-15T00:24:37.404Z,98497.34
2018-01-15T00:25:08.993Z,98504.16
2018-01-15T00:25:40.570Z,98504.12
2018-01-15T00:26:12.187Z,98502.45
2018-01-15T00:26:43.766Z,98506.67
2018-01-15T00:27:15.371Z,98507.14
2018-01-15T00:27:46.950Z,98498.62
2018-01-15T00:28:18.527Z,98505.86
2018-01-15T00:28:50.107Z,98503.36
2018-01-15T00:29:21.682Z,98497.81
2018-01-15T00:29:53.254Z,98505.48
2018-01-15T00:30:24.841Z,98503.77
2018-01-15T00:30:56.450Z,98501.22
2018-01-15T00:31:28.027Z,98495.26
2018-01-15T00:31:59.606Z,98497.81
2018-01-15T00:32:31.231Z,98490.58
2018-01-15T00:33:02.806Z,98496.16
2018-01-15T00:33:34.383Z,98488.06
2018-01-15T00:34:05.959Z,98494.03
2018-01-15T00:34:37.534Z,98494.45
2018-01-15T00:35:09.106Z,98485.50
2018-01-15T00:35:40.687Z,98490.58
2018-01-15T00:36:12.266Z,98495.68
2018-01-15T00:36:43.840Z,98492.70
2018-01-15T00:37:15.414Z,98487.58
2018-01-15T00:37:46.992Z,98488.82
2018-01-15T00:38:18.598Z,98492.66
2018-01-15T00:38:50.171Z,98488.39
2018-01-15T00:39:21.751Z,98484.98
2018-01-15T00:39:53.336Z,98490.95
2018-01-15T00:40:24.911Z,98491.80
2018-01-15T00:40:56.483Z,98490.53
2018-01-15T00:41:28.054Z,98487.97
2018-01-15T00:41:59.626Z,98480.73
2018-01-15T00:42:31.208Z,98488.02
2018-01-15T00:43:02.831Z,98490.58
2018-01-15T00:43:34.410Z,98485.89
2018-01-15T00:44:05.991Z,98491.05
2018-01-15T00:44:37.566Z,98498.28
2018-01-15T00:45:09.147Z,98494.92
2018-01-15T00:45:40.718Z,98490.20
2018-01-15T00:46:12.299Z,98497.39
2018-01-15T00:46:43.870Z,98498.67
2018-01-15T00:47:15.451Z,98488.92
2018-01-15T00:47:47.031Z,98489.34
2018-01-15T00:48:18.643Z,98491.47
2018-01-15T00:48:50.223Z,98499.95
2018-01-15T00:49:21.803Z,98495.73
2018-01-15T00:49:53.429Z,98493.17
2018-01-15T00:50:25.007Z,98489.34
2018-01-15T00:50:56.590Z,98487.64
2018-01-15T00:51:28.162Z,98493.18
2018-01-15T00:51:59.743Z,98488.95
2018-01-15T00:52:31.319Z,98492.74
2018-01-15T00:53:02.902Z,98485.94
2018-01-15T00:53:34.483Z,98496.16
2018-01-15T00:54:06.058Z,98493.56
2018-01-15T00:54:37.635Z,98492.33
2018-01-15T00:55:09.242Z,98497.00
2018-01-15T00:55:40.831Z,98492.70
2018-01-15T00:56:12.438Z,98499.56
2018-01-15T00:56:44.026Z,98493.98
2018-01-15T00:57:15.606Z,98489.72
2018-01-15T00:57:47.187Z,98492.70
2018-01-15T00:58:18.762Z,98488.45
2018-01-15T00:58:50.343Z,98488.48
2018-01-15T00:59:21.915Z,98485.98
2018-01-15T00:59:53.488Z,98494.03
2018-01-15T01:00:25.095Z,98483.84
2018-01-15T01:00:56.671Z,98490.66
2018-01-15T01:01:28.253Z,98487.25
2018-01-15T01:01:59.842Z,98487.67
2018-01-15T01:02:31.423Z,98487.68
2018-01-15T01:03:03.006Z,98488.95
2018-01-15T01:03:34.579Z,98498.75
2018-01-15T01:04:06.154Z,98490.67
2018-01-15T01:04:37.726Z,98487.30
2018-01-15T01:05:09.298Z,98493.27
2018-01-15T01:05:40.919Z,98496.25
2018-01-15T01:06:12.499Z,98490.67
2018-01-15T01:06:44.078Z,98491.98
2018-01-15T01:07:15.654Z,98494.50
2018-01-15T01:07:47.236Z,98496.63
2018-01-15T01:08:18.812Z,98494.55
2018-01-15T01:08:50.391Z,98489.85
2018-01-15T01:09:21.971Z,98494.55
2018-01-15T01:09:53.547Z,98490.23
2018-01-15T01:10:25.129Z,98487.69
2018-01-15T01:10:56.743Z,98482.61
2018-01-15T01:11:28.315Z,98489.00
2018-01-15T01:11:59.894Z,98491.98
2018-01-15T01:12:31.478Z,98487.27
2018-01-15T01:13:03.054Z,98488.16
2018-01-15T01:13:34.636Z,98488.58
2018-01-15T01:14:06.214Z,98489.02
2018-01-15T01:14:37.794Z,98487.77
2018-01-15T01:15:09.407Z,98489.86
2018-01-15T01:15:40.986Z,98487.30
2018-01-15T01:16:12.595Z,98490.76
2018-01-15T01:16:44.171Z,98484.80
2018-01-15T01:17:15.787Z,98487.34
2018-01-15T01:17:47.367Z,98482.66
2018-01-15T01:18:18.947Z,98482.66
2018-01-15T01:18:50.527Z,98484.75
2018-01-15T01:19:22.102Z,98483.47
2018-01-15T01:19:53.683Z,98481.81
2018-01-15T01:20:25.263Z,98486.50
2018-01-15T01:20:56.843Z,98481.42
2018-01-15T01:21:28.418Z,98487.34
2018-01-15T01:21:59.991Z,98482.70
2018-01-15T01:22:31.610Z,98480.96
2018-01-15T01:23:03.186Z,98484.80
2018-01-15T01:23:34.763Z,98486.95
2018-01-15T01:24:06.343Z,98480.97
2018-01-15T01:24:37.918Z,98481.00
2018-01-15T01:25:09.490Z,98481.84
2018-01-15T01:25:41.062Z,98480.57
2018-01-15T01:26:12.647Z,98486.07
2018-01-15T01:26:44.219Z,98487.34
2018-01-15T01:27:15.803Z,98483.52
2018-01-15T01:27:47.422Z,98483.94
2018-01-15T01:28:18.994Z,98482.28
2018-01-15T01:28:50.571Z,98479.29
2018-01-15T01:29:22.151Z,98480.58
2018-01-15T01:29:53.732Z,98481.44
2018-01-15T01:30:25.315Z,98471.20
2018-01-15T01:30:56.898Z,98474.61
2018-01-15T01:31:28.470Z,98469.08
2018-01-15T01:32:00.052Z,98477.17
2018-01-15T01:32:31.634Z,98469.97
2018-01-15T01:33:03.243Z,98473.81
2018-01-15T01:33:34.823Z,98464.01
2018-01-15T01:34:06.398Z,98469.13
2018-01-15T01:34:37.975Z,98461.03
2018-01-15T01:35:09.551Z,98471.25
2018-01-15T01:35:41.127Z,98466.56
2018-01-15T01:36:12.711Z,98461.87
2018-01-15T01:36:44.292Z,98468.70
2018-01-15T01:37:15.914Z,98464.86
2018-01-15T01:37:47.486Z,98464.00
2018-01-15T01:38:19.063Z,98465.67
2018-01-15T01:38:50.639Z,98459.75
2018-01-15T01:39:22.214Z,98464.39
2018-01-15T01:39:53.790Z,98462.68
2018-01-15T01:40:25.371Z,98466.05
2018-01-15T01:40:56.942Z,98461.40
2018-01-15T01:41:28.521Z,98462.68
2018-01-15T01:42:00.098Z,98464.34
2018-01-15T01:42:31.706Z,98462.63
2018-01-15T01:43:03.278Z,98459.62
2018-01-15T01:43:34.860Z,98456.63
2018-01-15T01:44:06.438Z,98460.46
2018-01-15T01:44:38.022Z,98457.91
2018-01-15T01:45:09.594Z,98453.21
2018-01-15T01:45:41.211Z,98456.20
2018-01-15T01:46:12.791Z,98456.63
2018-01-15T01:46:44.362Z,98452.38
2018-01-15T01:47:15.942Z,98450.23
2018-01-15T01:47:47.519Z,98444.70
2018-01-15T01:48:19.099Z,98450.23
2018-01-15T01:48:50.962Z,98448.58
2018-01-15T01:49:22.534Z,98449.81
2018-01-15T01:49:54.110Z,98450.66
2018-01-15T01:50:25.682Z,98448.10
2018-01-15T01:50:57.259Z,98454.06
2018-01-15T01:51:28.840Z,98451.51
2018-01-15T01:52:00.414Z,98450.66
2018-01-15T01:52:31.992Z,98453.64
2018-01-15T01:53:03.574Z,98456.63
2018-01-15T01:53:35.147Z,98452.38
2018-01-15T01:54:06.723Z,98446.41
2018-01-15T01:54:38.303Z,98453.23
2018-01-15T01:55:09.883Z,98449.02
2018-01-15T01:55:41.458Z,98443.47
2018-01-15T01:56:13.031Z,98446.92
2018-01-15T01:56:44.611Z,98452.03
2018-01-15T01:57:16.187Z,98447.34
2018-01-15T01:57:47.762Z,98446.50
2018-01-15T01:58:19.346Z,98448.63
2018-01-15T01:58:50.918Z,98449.95
2018-01-15T01:59:22.539Z,98452.09
2018-01-15T01:59:54.123Z,98444.45
2018-01-15T02:00:25.703Z,98439.86
2018-01-15T02:00:57.286Z,98446.55
2018-01-15T02:01:28.867Z,98452.51
2018-01-15T02:02:00.442Z,98446.55
2018-01-15T02:02:32.058Z,98441.01
2018-01-15T02:03:03.638Z,98442.23
2018-01-15T02:03:35.220Z,98452.31
2018-01-15T02:04:06.795Z,98448.05
2018-01-15T02:04:38.374Z,98445.13
2018-01-15T02:05:09.951Z,98438.36
2018-01-15T02:05:41.530Z,98440.16
2018-01-15T02:06:13.102Z,98439.81
2018-01-15T02:06:44.679Z,98438.20
2018-01-15T02:07:16.250Z,98436.08
2018-01-15T02:07:47.858Z,98438.67
2018-01-15T02:08:19.435Z,98439.53
2018-01-15T02:08:51.006Z,98440.34
2018-01-15T02:09:22.582Z,98444.17
2018-01-15T02:09:54.165Z,98439.88
2018-01-15T02:10:25.744Z,98439.44
2018-01-15T02:10:57.358Z,98442.00
2018-01-15T02:11:28.939Z,98441.56
2018-01-15T02:12:00.519Z,98437.35
2018-01-15T02:12:32.103Z,98444.94
2018-01-15T02:13:03.683Z,98449.66
2018-01-15T02:13:35.296Z,98450.09
2018-01-15T02:14:06.878Z,98451.79
2018-01-15T02:14:38.459Z,98446.68
2018-01-15T02:15:10.039Z,98452.22
2018-01-15T02:15:41.630Z,98446.69
2018-01-15T02:16:13.210Z,98449.62
2018-01-15T02:16:44.782Z,98450.47
2018-01-15T02:17:16.363Z,98446.59
2018-01-15T02:17:47.975Z,98449.53
2018-01-15T02:18:19.555Z,98448.67
2018-01-15T02:18:51.138Z,98457.58
2018-01-15T02:19:22.714Z,98447.78
2018-01-15T02:19:54.295Z,98451.18
2018-01-15T02:20:25.871Z,98448.63
2018-01-15T02:20:57.442Z,98442.28
2018-01-15T02:21:29.018Z,98440.16
2018-01-15T02:22:00.599Z,98447.83
2018-01-15T02:22:32.175Z,98441.52
2018-01-15T02:23:03.787Z,98439.40
2018-01-15T02:23:35.363Z,98442.38
2018-01-15T02:24:06.942Z,98438.59
2018-01-15T02:24:38.514Z,98439.91
2018-01-15T02:25:10.091Z,98438.20
2018-01-15T02:25:41.671Z,98440.34
2018-01-15T02:26:13.247Z,98438.21
2018-01-15T02:26:44.826Z,98441.20
2018-01-15T02:27:16.407Z,98441.62
2018-01-15T02:27:48.023Z,98434.42
2018-01-15T02:28:19.603Z,98439.02
2018-01-15T02:28:51.179Z,98439.36
2018-01-15T02:29:22.763Z,98440.16
2018-01-15T02:29:54.343Z,98441.86
2018-01-15T02:30:25.915Z,98440.96
2018-01-15T02:30:57.494Z,98446.92
2018-01-15T02:31:29.075Z,98448.20
2018-01-15T02:32:00.652Z,98450.75
2018-01-15T02:32:32.231Z,98443.08
2018-01-15T02:33:03.846Z,98446.06
2018-01-15T02:33:35.423Z,98446.45
2018-01-15T02:34:07.039Z,98446.02
2018-01-15T02:34:38.615Z,98446.03
2018-01-15T02:35:10.195Z,98445.17
2018-01-15T02:35:41.775Z,98446.45
2018-01-15T02:36:13.350Z,98449.47
2018-01-15T02:36:44.931Z,98439.67
2018-01-15T02:37:16.506Z,98444.79
2018-01-15T02:37:48.115Z,98449.48
2018-01-15T02:38:19.693Z,98445.65
2018-01-15T02:38:51.273Z,98440.10
2018-01-15T02:39:22.890Z,98445.21
2018-01-15T02:39:54.471Z,98442.23
2018-01-15T02:40:26.047Z,98434.14
2018-01-15T02:40:57.622Z,98437.13
2018-01-15T02:41:29.197Z,98441.34
2018-01-15T02:42:00.771Z,98437.12
2018-01-15T02:42:32.346Z,98440.49
2018-01-15T02:43:03.919Z,98443.94
2018-01-15T02:43:35.495Z,98439.68
2018-01-15T02:44:07.099Z,98436.74
2018-01-15T02:44:38.710Z,98438.45
2018-01-15T02:45:10.295Z,98443.99
2018-01-15T02:45:41.871Z,98438.50
2018-01-15T02:46:13.450Z,98438.54
2018-01-15T02:46:45.032Z,98438.12
2018-01-15T02:47:16.610Z,98441.99
2018-01-15T02:47:48.183Z,98439.44
2018-01-15T02:48:19.759Z,98445.36
2018-01-15T02:48:51.340Z,98444.09
2018-01-15T02:49:22.958Z,98444.08
2018-01-15T02:49:54.566Z,98446.22
2018-01-15T02:50:26.175Z,98443.70
2018-01-15T02:50:57.751Z,98447.54
2018-01-15T02:51:29.323Z,98443.28
2018-01-15T02:52:00.903Z,98444.59
2018-01-15T02:52:32.480Z,98440.34
2018-01-15T02:53:04.054Z,98428.09
2018-01-15T02:53:35.635Z,98443.75
2018-01-15T02:54:07.215Z,98439.48
2018-01-15T02:54:38.846Z,98441.61
2018-01-15T02:55:10.426Z,98439.91
2018-01-15T02:55:42.007Z,98445.03
2018-01-15T02:56:13.586Z,98443.36
2018-01-15T02:56:45.167Z,98448.02
2018-01-15T02:57:16.779Z,98436.97
2018-01-15T02:57:48.350Z,98445.50
2018-01-15T02:58:19.930Z,98439.58
2018-01-15T02:58:51.502Z,98438.73
2018-01-15T02:59:23.082Z,98440.00
2018-01-15T02:59:54.658Z,98444.65
2018-01-15T03:00:26.230Z,98442.55
2018-01-15T03:00:57.806Z,98437.84
2018-01-15T03:01:29.386Z,98436.55
2018-01-15T03:02:01.003Z,98440.81
2018-01-15T03:02:32.583Z,98443.41
2018-01-15T03:03:04.163Z,98436.17
2018-01-15T03:03:35.745Z,98447.24
2018-01-15T03:04:07.323Z,98441.28
2018-01-15T03:04:38.934Z,98442.55
2018-01-15T03:05:10.503Z,98443.37
2018-01-15T03:05:42.078Z,98440.38
2018-01-15T03:06:13.659Z,98428.89
2018-01-15T03:06:45.235Z,98440.77
2018-01-15T03:07:16.851Z,98429.27
2018-01-15T03:07:48.427Z,98432.72
2018-01-15T03:08:19.998Z,98433.15
2018-01-15T03:08:51.574Z,98434.47
2018-01-15T03:09:23.155Z,98430.20
2018-01-15T03:09:54.735Z,98427.23
2018-01-15T03:10:26.311Z,98430.63
2018-01-15T03:10:57.890Z,98431.06
2018-01-15T03:11:29.463Z,98430.68
2018-01-15T03:12:01.037Z,98414.50
2018-01-15T03:12:32.651Z,98426.42
2018-01-15T03:13:04.230Z,98421.74
2018-01-15T03:13:35.807Z,98423.05
2018-01-15T03:14:07.387Z,98416.67
2018-01-15T03:14:38.971Z,98419.23
2018-01-15T03:15:10.582Z,98415.02
2018-01-15T03:15:42.154Z,98409.06
2018-01-15T03:16:13.735Z,98406.07
2018-01-15T03:16:45.320Z,98408.20
2018-01-15T03:17:16.934Z,98411.19
2018-01-15T03:17:48.515Z,98410.38
2018-01-15T03:18:20.095Z,98409.95
2018-01-15T03:18:51.671Z,98404.89
2018-01-15T03:19:23.247Z,98406.63
2018-01-15T03:19:54.823Z,98400.67
2018-01-15T03:20:26.409Z,98397.27
2018-01-15T03:20:57.987Z,98402.42
2018-01-15T03:21:29.563Z,98399.45
2018-01-15T03:22:01.143Z,98398.59
2018-01-15T03:22:32.762Z,98396.47
2018-01-15T03:23:04.351Z,98393.50
2018-01-15T03:23:35.931Z,98399.50
2018-01-15T03:24:07.511Z,98401.20
2018-01-15T03:24:39.091Z,98397.80
2018-01-15T03:25:10.667Z,98398.27
2018-01-15T03:25:42.247Z,98397.41
2018-01-15T03:26:13.828Z,98396.99
2018-01-15T03:26:45.408Z,98397.84
2018-01-15T03:27:17.030Z,98394.02
2018-01-15T03:27:48.607Z,98399.55
2018-01-15T03:28:20.182Z,98395.72
2018-01-15T03:28:51.759Z,98399.08
2018-01-15T03:29:23.332Z,98399.50
2018-01-15T03:29:54.911Z,98399.07
2018-01-15T03:30:26.492Z,98395.66
2018-01-15T03:30:58.071Z,98399.03
2018-01-15T03:31:29.648Z,98399.88
2018-01-15T03:32:01.228Z,98391.36
2018-01-15T03:32:32.807Z,98390.90
2018-01-15T03:33:04.383Z,98394.72
2018-01-15T03:33:35.962Z,98390.03
2018-01-15T03:34:07.543Z,98390.84
2018-01-15T03:34:39.124Z,98390.41
2018-01-15T03:35:10.703Z,98392.16
2018-01-15T03:35:42.274Z,98384.50
2018-01-15T03:36:13.851Z,98384.12
2018-01-15T03:36:45.715Z,98385.81
2018-01-15T03:37:17.294Z,98386.24
2018-01-15T03:37:48.919Z,98385.34
2018-01-15T03:38:20.499Z,98383.22
2018-01-15T03:38:52.079Z,98387.48
2018-01-15T03:39:23.650Z,98388.76
2018-01-15T03:39:55.231Z,98379.39
2018-01-15T03:40:26.803Z,98359.15
2018-01-15T03:40:58.378Z,98381.95
2018-01-15T03:41:29.951Z,98378.54
2018-01-15T03:42:01.526Z,98382.38
2018-01-15T03:42:33.107Z,98376.84
2018-01-15T03:43:04.714Z,98371.25
2018-01-15T03:43:36.286Z,98373.38
2018-01-15T03:44:07.858Z,98375.89
2018-01-15T03:44:39.434Z,98374.61
2018-01-15T03:45:11.015Z,98372.58
2018-01-15T03:45:42.590Z,98374.61
2018-01-15T03:46:14.171Z,98372.91
2018-01-15T03:46:45.771Z,98383.97
2018-01-15T03:47:17.352Z,98383.13
2018-01-15T03:47:48.931Z,98384.83
2018-01-15T03:48:20.511Z,98376.27
2018-01-15T03:48:52.086Z,98374.13
2018-01-15T03:49:23.663Z,98378.35
2018-01-15T03:49:55.247Z,98384.69
2018-01-15T03:50:26.822Z,98376.61
2018-01-15T03:50:58.398Z,98378.30
2018-01-15T03:51:29.979Z,98378.73
2018-01-15T03:52:01.591Z,98375.70
2018-01-15T03:52:33.162Z,98375.31
2018-01-15T03:53:04.739Z,98378.30
2018-01-15T03:53:36.314Z,98377.45
2018-01-15T03:54:07.914Z,98372.77
2018-01-15T03:54:39.495Z,98374.00
2018-01-15T03:55:11.115Z,98371.45
2018-01-15T03:55:42.691Z,98369.73
2018-01-15T03:56:14.274Z,98369.30
2018-01-15T03:56:45.854Z,98372.66
2018-01-15T03:57:17.427Z,98364.53
2018-01-15T03:57:49.002Z,98367.08
2018-01-15T03:58:20.583Z,98365.38
2018-01-15T03:58:52.160Z,98363.69
2018-01-15T03:59:23.787Z,98363.69
2018-01-15T03:59:55.362Z,98362.87
2018-01-15T04:00:26.939Z,98358.19
2018-01-15T04:00:58.515Z,98357.34
2018-01-15T04:01:30.095Z,98357.77
2018-01-15T04:02:01.675Z,98354.73
2018-01-15T04:02:33.255Z,98353.46
2018-01-15T04:03:04.835Z,98363.69
2018-01-15T04:03:36.410Z,98357.76
2018-01-15T04:04:07.991Z,98350.91
2018-01-15T04:04:39.571Z,98356.44
2018-01-15T04:05:11.152Z,98358.13
2018-01-15T04:05:42.727Z,98350.42
2018-01-15T04:06:14.311Z,98346.63
2018-01-15T04:06:45.938Z,98350.84
2018-01-15T04:07:17.510Z,98355.95
2018-01-15T04:07:49.086Z,98354.69
2018-01-15T04:08:20.662Z,98361.55
2018-01-15T04:08:52.239Z,98351.32
2018-01-15T04:09:23.813Z,98349.19
2018-01-15T04:09:55.391Z,98355.12
2018-01-15T04:10:26.967Z,98355.54
2018-01-15T04:10:58.538Z,98358.13
2018-01-15T04:11:30.119Z,98350.89
2018-01-15T04:12:01.699Z,98360.69
2018-01-15T04:12:33.279Z,98349.15
2018-01-15T04:13:04.863Z,98350.86
2018-01-15T04:13:36.438Z,98357.29
2018-01-15T04:14:08.022Z,98354.30
2018-01-15T04:14:39.594Z,98358.13
2018-01-15T04:15:11.198Z,98351.70
2018-01-15T04:15:42.776Z,98353.88
2018-01-15T04:16:14.383Z,98347.91
2018-01-15T04:16:45.962Z,98351.28
2018-01-15T04:17:17.539Z,98344.03
2018-01-15T04:17:49.119Z,98346.63
2018-01-15T04:18:20.694Z,98350.47
2018-01-15T04:18:52.275Z,98344.94
2018-01-15T04:19:23.852Z,98346.22
2018-01-15T04:19:55.426Z,98338.55
2018-01-15T04:20:27.002Z,98353.88
2018-01-15T04:20:58.578Z,98343.70
2018-01-15T04:21:30.183Z,98342.01
2018-01-15T04:22:01.763Z,98340.31
2018-01-15T04:22:33.338Z,98342.86
2018-01-15T04:23:04.918Z,98337.79
2018-01-15T04:23:36.525Z,98342.48
2018-01-15T04:24:08.103Z,98347.16
2018-01-15T04:24:39.674Z,98343.77
2018-01-15T04:25:11.251Z,98348.48
2018-01-15T04:25:42.827Z,98345.50
2018-01-15T04:26:14.402Z,98342.53
2018-01-15T04:26:45.978Z,98344.23
2018-01-15T04:27:17.551Z,98345.94
2018-01-15T04:27:49.126Z,98342.54
2018-01-15T04:28:20.706Z,98345.93
2018-01-15T04:28:52.282Z,98339.98
2018-01-15T04:29:23.863Z,98342.11
2018-01-15T04:29:55.438Z,98342.58
2018-01-15T04:30:27.020Z,98345.98
2018-01-15T04:30:58.599Z,98337.09
2018-01-15T04:31:30.211Z,98345.19
2018-01-15T04:32:01.822Z,98339.66
2018-01-15T04:32:33.403Z,98341.39
2018-01-15T04:33:04.978Z,98340.92
2018-01-15T04:33:36.594Z,98344.33
2018-01-15T04:34:08.166Z,98341.78
2018-01-15T04:34:39.751Z,98337.09
2018-01-15T04:35:11.333Z,98333.69
2018-01-15T04:35:42.916Z,98339.22
2018-01-15T04:36:14.487Z,98335.39
2018-01-15T04:36:46.063Z,98332.84
2018-01-15T04:37:17.674Z,98333.73
2018-01-15T04:37:49.250Z,98330.28
2018-01-15T04:38:20.823Z,98330.33
2018-01-15T04:38:52.439Z,98328.20
2018-01-15T04:39:24.014Z,98329.48
2018-01-15T04:39:55.595Z,98326.49
2018-01-15T04:40:27.176Z,98325.60
2018-01-15T04:40:58.764Z,98327.30
2018-01-15T04:41:30.342Z,98323.46
2018-01-15T04:42:01.915Z,98320.44
2018-01-15T04:42:33.493Z,98321.72
2018-01-15T04:43:05.075Z,98326.39
2018-01-15T04:43:36.655Z,98323.37
2018-01-15T04:44:08.234Z,98320.77
2018-01-15T04:44:39.811Z,98321.19
2018-01-15T04:45:11.390Z,98321.18
2018-01-15T04:45:43.006Z,98319.42
2018-01-15T04:46:14.583Z,98319.00
2018-01-15T04:46:46.167Z,98316.92
2018-01-15T04:47:17.738Z,98319.48
2018-01-15T04:47:49.319Z,98314.33
2018-01-15T04:48:20.903Z,98317.78
2018-01-15T04:48:52.479Z,98320.34
2018-01-15T04:49:24.051Z,98318.22
2018-01-15T04:49:55.622Z,98318.64
2018-01-15T04:50:27.202Z,98319.48
2018-01-15T04:50:58.822Z,98324.12
2018-01-15T04:51:30.403Z,98311.33
2018-01-15T04:52:01.978Z,98312.62
2018-01-15T04:52:33.552Z,98316.02
2018-01-15T04:53:05.131Z,98321.98
2018-01-15T04:53:36.707Z,98319.02
2018-01-15T04:54:08.287Z,98315.18
2018-01-15T04:54:39.862Z,98318.20
2018-01-15T04:55:11.556Z,98317.34
2018-01-15T04:55:43.171Z,98308.41
2018-01-15T04:56:14.751Z,98308.45
2018-01-15T04:56:46.326Z,98308.47
2018-01-15T04:57:17.906Z,98311.44
2018-01-15T04:57:49.487Z,98311.88
2018-01-15T04:58:21.279Z,98310.26
2018-01-15T04:58:52.854Z,98306.80
2018-01-15T04:59:24.434Z,98303.83
2018-01-15T04:59:56.015Z,98302.98
2018-01-15T05:00:27.595Z,98299.16
2018-01-15T05:00:59.166Z,98297.88
2018-01-15T05:01:30.739Z,98302.59
2018-01-15T05:02:02.319Z,98303.03
2018-01-15T05:02:33.896Z,98307.72
2018-01-15T05:03:05.474Z,98303.08
2018-01-15T05:03:37.046Z,98299.24
2018-01-15T05:04:08.627Z,98291.58
2018-01-15T05:04:40.207Z,98303.45
2018-01-15T05:05:11.786Z,98294.51
2018-01-15T05:05:43.391Z,98295.79
2018-01-15T05:06:14.971Z,98295.74
2018-01-15T05:06:46.546Z,98299.61
2018-01-15T05:07:18.127Z,98296.59
2018-01-15T05:07:49.699Z,98302.60
2018-01-15T05:08:21.279Z,98296.64
2018-01-15T05:08:52.855Z,98306.42
2018-01-15T05:09:24.475Z,98299.16
2018-01-15T05:09:56.059Z,98305.54
2018-01-15T05:10:27.630Z,98298.34
2018-01-15T05:10:59.202Z,98295.36
2018-01-15T05:11:30.782Z,98298.34
2018-01-15T05:12:02.355Z,98297.11
2018-01-15T05:12:33.927Z,98299.24
2018-01-15T05:13:05.502Z,98302.22
2018-01-15T05:13:37.079Z,98299.23
2018-01-15T05:14:08.654Z,98297.54
2018-01-15T05:14:40.273Z,98296.27
2018-01-15T05:15:11.902Z,98287.74
2018-01-15T05:15:43.483Z,98296.27
2018-01-15T05:16:15.059Z,98287.75
2018-01-15T05:16:46.640Z,98293.71
2018-01-15T05:17:18.223Z,98287.32
2018-01-15T05:17:49.803Z,98276.72
2018-01-15T05:18:21.378Z,98284.34
2018-01-15T05:18:52.955Z,98283.02
2018-01-15T05:19:24.536Z,98277.00
2018-01-15T05:19:56.115Z,98274.88
2018-01-15T05:20:27.735Z,98278.75
2018-01-15T05:20:59.306Z,98274.50
2018-01-15T05:21:30.878Z,98272.80
2018-01-15T05:22:02.450Z,98280.46
2018-01-15T05:22:34.031Z,98269.81
2018-01-15T05:23:05.603Z,98273.64
2018-01-15T05:23:37.179Z,98280.03
2018-01-15T05:24:08.756Z,98274.88
2018-01-15T05:24:40.335Z,98275.31
2018-01-15T05:25:11.915Z,98266.83
2018-01-15T05:25:43.498Z,98276.20
2018-01-15T05:26:15.074Z,98272.84
2018-01-15T05:26:46.666Z,98274.12
2018-01-15T05:27:18.237Z,98282.59
2018-01-15T05:27:49.819Z,98273.22
2018-01-15T05:28:21.390Z,98283.02
2018-01-15T05:28:52.971Z,98276.63
2018-01-15T05:29:24.767Z,98273.22
2018-01-15T05:29:56.351Z,98280.46
2018-01-15T05:30:27.926Z,98278.77
2018-01-15T05:30:59.498Z,98276.25
2018-01-15T05:31:31.071Z,98281.36
2018-01-15T05:32:02.653Z,98279.61
2018-01-15T05:32:34.235Z,98268.96
2018-01-15T05:33:05.815Z,98274.45
2018-01-15T05:33:37.386Z,98271.89
2018-01-15T05:34:08.958Z,98275.30
2018-01-15T05:34:40.571Z,98268.48
2018-01-15T05:35:12.187Z,98265.47
2018-01-15T05:35:43.786Z,98270.14
2018-01-15T05:36:15.363Z,98264.17
2018-01-15T05:36:46.938Z,98262.47
2018-01-15T05:37:18.511Z,98269.24
2018-01-15T05:37:50.130Z,98265.39
2018-01-15T05:38:21.703Z,98265.81
2018-01-15T05:38:53.274Z,98265.41
2018-01-15T05:39:24.846Z,98267.11
2018-01-15T05:39:56.423Z,98259.87
2018-01-15T05:40:28.002Z,98261.52
2018-01-15T05:40:59.578Z,98269.66
2018-01-15T05:41:31.158Z,98268.38
2018-01-15T05:42:02.731Z,98266.25
2018-01-15T05:42:34.311Z,98266.19
2018-01-15T05:43:05.887Z,98259.77
2018-01-15T05:43:37.467Z,98270.41
2018-01-15T05:44:09.083Z,98258.09
2018-01-15T05:44:40.663Z,98259.81
2018-01-15T05:45:12.235Z,98258.91
2018-01-15T05:45:43.807Z,98258.91
2018-01-15T05:46:15.386Z,98260.61
2018-01-15T05:46:46.962Z,98262.79
2018-01-15T05:47:18.647Z,98262.80
2018-01-15T05:47:50.231Z,98257.27
2018-01-15T05:48:21.811Z,98257.68
2018-01-15T05:48:53.386Z,98255.56
2018-01-15T05:49:24.997Z,98252.10
2018-01-15T05:49:56.578Z,98256.77
2018-01-15T05:50:28.155Z,98251.19
2018-01-15T05:50:59.731Z,98253.37
2018-01-15T05:51:31.311Z,98258.91
2018-01-15T05:52:02.899Z,98254.70
2018-01-15T05:52:34.508Z,98261.45
2018-01-15T05:53:06.087Z,98256.36
2018-01-15T05:53:37.658Z,98251.72
2018-01-15T05:54:09.238Z,98255.14
2018-01-15T05:54:40.814Z,98254.74
2018-01-15T05:55:12.443Z,98251.30
2018-01-15T05:55:44.035Z,98252.19
2018-01-15T05:56:15.611Z,98248.36
2018-01-15T05:56:47.190Z,98251.34
2018-01-15T05:57:18.810Z,98245.00
2018-01-15T05:57:50.427Z,98251.02
2018-01-15T05:58:21.999Z,98238.63
2018-01-15T05:58:53.580Z,98244.22
2018-01-15T05:59:25.154Z,98245.49
2018-01-15T05:59:56.735Z,98248.04
2018-01-15T06:00:28.306Z,98248.46
2018-01-15T06:00:59.881Z,98252.30
2018-01-15T06:01:31.463Z,98241.19
2018-01-15T06:02:03.042Z,98233.08
2018-01-15T06:02:34.654Z,98235.59
2018-01-15T06:03:06.235Z,98243.26
2018-01-15T06:03:37.806Z,98244.95
2018-01-15T06:04:09.382Z,98240.75
2018-01-15T06:04:40.995Z,98243.73
2018-01-15T06:05:12.574Z,98243.69
2018-01-15T06:05:44.155Z,98229.20
2018-01-15T06:06:15.726Z,98234.37
2018-01-15T06:06:47.302Z,98239.53
2018-01-15T06:07:18.874Z,98232.34
2018-01-15T06:07:50.446Z,98235.75
2018-01-15T06:08:22.023Z,98237.47
2018-01-15T06:08:53.640Z,98229.80
2018-01-15T06:09:25.226Z,98230.69
2018-01-15T06:09:56.802Z,98237.50
2018-01-15T06:10:28.378Z,98234.91
2018-01-15T06:10:59.959Z,98240.87